createdAt,value
2023-01-13T00:03:13.775Z,98580.75
2023-01-13T00:07:38.730Z,98580.40
2023-01-13T00:11:56.814Z,98583.30
2023-01-13T00:16:20.831Z,98585.70
2023-01-13T00:20:44.933Z,98582.13
2023-01-13T00:25:08.846Z,98575.20
2023-01-13T00:29:33.692Z,98570.59
2023-01-13T00:33:58.527Z,98574.00
2023-01-13T00:38:22.704Z,98578.48
2023-01-13T00:42:45.281Z,98582.30
2023-01-13T00:47:10.216Z,98577.42
2023-01-13T00:51:37.819Z,98580.90
2023-01-13T00:56:01.717Z,98575.95
2023-01-13T01:00:25.717Z,98574.06
2023-01-13T01:04:49.663Z,98570.08
2023-01-13T01:09:13.584Z,98564.30
2023-01-13T01:13:37.700Z,98562.89
2023-01-13T01:18:01.705Z,98554.73
2023-01-13T01:22:26.501Z,98553.08
2023-01-13T01:26:56.117Z,98553.40
2023-01-13T01:31:20.068Z,98542.86
2023-01-13T01:35:44.846Z,98543.48
2023-01-13T01:40:08.746Z,98534.35
2023-01-13T01:44:49.322Z,98528.77
2023-01-13T01:49:14.442Z,98537.14
2023-01-13T01:53:38.324Z,98536.18
2023-01-13T01:58:02.170Z,98544.05
2023-01-13T02:02:27.488Z,98546.98
2023-01-13T02:06:51.412Z,98543.77
2023-01-13T02:11:16.281Z,98541.42
2023-01-13T02:15:40.193Z,98537.63
2023-01-13T02:20:09.943Z,98526.52
2023-01-13T02:25:16.603Z,98525.27
2023-01-13T02:29:44.380Z,98522.55
2023-01-13T02:34:26.554Z,98514.58
2023-01-13T02:38:50.586Z,98514.12
2023-01-13T02:43:18.616Z,98513.40
2023-01-13T02:47:45.285Z,98511.62
2023-01-13T02:52:10.139Z,98506.01
2023-01-13T02:56:35.103Z,98506.30
2023-01-13T03:01:00.184Z,98500.66
2023-01-13T03:05:28.671Z,98490.84
2023-01-13T03:10:10.686Z,98489.55
2023-01-13T03:14:33.930Z,98483.52
2023-01-13T03:19:15.991Z,98481.52
2023-01-13T03:23:51.846Z,98473.07
2023-01-13T03:28:18.230Z,98469.27
2023-01-13T03:32:42.187Z,98464.38
2023-01-13T03:37:06.232Z,98463.19
2023-01-13T03:41:33.673Z,98462.54
2023-01-13T03:45:57.352Z,98467.04
2023-01-13T03:50:24.869Z,98469.37
2023-01-13T03:54:57.557Z,98467.98
2023-01-13T03:59:24.222Z,98468.02
2023-01-13T04:03:42.318Z,98471.06
2023-01-13T04:08:12.258Z,98474.07
2023-01-13T04:12:38.223Z,98472.89
2023-01-13T04:17:02.184Z,98479.14
2023-01-13T04:21:46.094Z,98480.05
2023-01-13T04:26:12.059Z,98486.56
2023-01-13T04:30:26.220Z,98488.73
2023-01-13T04:34:50.133Z,98488.79
2023-01-13T04:39:15.124Z,98491.20
2023-01-13T04:43:39.036Z,98489.23
2023-01-13T04:48:02.180Z,98490.11
2023-01-13T04:52:26.104Z,98487.09
2023-01-13T04:56:50.038Z,98488.77
2023-01-13T05:01:14.190Z,98482.50
2023-01-13T05:05:38.476Z,98484.27
2023-01-13T05:10:01.314Z,98479.36
2023-01-13T05:14:23.530Z,98492.75
2023-01-13T05:18:47.580Z,98496.16
2023-01-13T05:23:10.124Z,98494.12
2023-01-13T05:27:34.213Z,98492.91
2023-01-13T05:31:58.156Z,98488.73
2023-01-13T05:36:22.063Z,98490.89
2023-01-13T05:40:44.468Z,98489.11
2023-01-13T05:45:08.523Z,98488.49
2023-01-13T05:49:25.056Z,98491.34
2023-01-13T05:53:28.617Z,98494.63
2023-01-13T05:57:52.664Z,98496.78
2023-01-13T06:02:16.537Z,98498.04
2023-01-13T06:06:42.029Z,98503.95
2023-01-13T06:11:07.083Z,98510.33
2023-01-13T06:15:31.046Z,98511.88
2023-01-13T06:19:55.083Z,98516.34
2023-01-13T06:24:19.041Z,98518.09
2023-01-13T06:28:42.916Z,98516.02
2023-01-13T06:33:06.909Z,98514.27
2023-01-13T06:37:31.914Z,98517.10
2023-01-13T06:41:54.256Z,98517.67
2023-01-13T06:46:21.290Z,98518.20
2023-01-13T06:50:45.238Z,98518.92
2023-01-13T06:55:01.645Z,98521.48
2023-01-13T06:59:25.719Z,98527.89
2023-01-13T07:03:49.612Z,98528.07
2023-01-13T07:08:13.524Z,98527.51
2023-01-13T07:12:43.110Z,98527.30
2023-01-13T07:17:14.804Z,98527.36
2023-01-13T07:21:41.344Z,98520.45
2023-01-13T07:25:45.100Z,98515.40
2023-01-13T07:30:09.089Z,98518.10
2023-01-13T07:34:33.181Z,98522.70
2023-01-13T07:38:57.138Z,98523.65
2023-01-13T07:43:19.560Z,98522.20
2023-01-13T07:47:42.075Z,98521.10
2023-01-13T07:52:05.954Z,98524.84
2023-01-13T07:56:31.051Z,98526.38
2023-01-13T08:00:55.317Z,98524.20
2023-01-13T08:05:20.403Z,98532.66
2023-01-13T08:09:44.393Z,98536.64
2023-01-13T08:14:18.314Z,98534.29
2023-01-13T08:18:42.259Z,98535.65
2023-01-13T08:23:07.390Z,98529.17
2023-01-13T08:27:33.667Z,98532.24
2023-01-13T08:31:50.175Z,98536.02
2023-01-13T08:36:08.227Z,98536.58
2023-01-13T08:40:32.215Z,98536.61
2023-01-13T08:44:56.099Z,98536.56
2023-01-13T08:49:12.941Z,98540.96
2023-01-13T08:53:37.843Z,98546.39
2023-01-13T08:58:14.683Z,98556.60
2023-01-13T09:02:38.651Z,98558.23
2023-01-13T09:07:04.735Z,98554.46
2023-01-13T09:11:27.173Z,98558.15
2023-01-13T09:15:51.171Z,98562.47
2023-01-13T09:20:15.129Z,98559.71
2023-01-13T09:24:39.106Z,98556.33
2023-01-13T09:29:03.019Z,98554.74
2023-01-13T09:33:24.613Z,98560.62
2023-01-13T09:37:48.442Z,98560.81
2023-01-13T09:42:16.935Z,98557.83
2023-01-13T09:46:42.364Z,98556.59
2023-01-13T09:51:12.296Z,98558.45
2023-01-13T09:55:43.332Z,98558.64
2023-01-13T10:00:09.799Z,98557.15
2023-01-13T10:04:13.524Z,98557.61
2023-01-13T10:08:37.464Z,98558.38
2023-01-13T10:12:59.933Z,98558.61
2023-01-13T10:17:26.590Z,98557.48
2023-01-13T10:21:59.821Z,98549.34
2023-01-13T10:26:32.264Z,98545.83
2023-01-13T10:30:58.962Z,98547.84
2023-01-13T10:35:02.489Z,98547.39
2023-01-13T10:39:35.455Z,98536.87
2023-01-13T10:44:08.574Z,98536.48
2023-01-13T10:48:48.573Z,98539.88
2023-01-13T10:53:15.421Z,98538.52
2023-01-13T10:57:54.521Z,98532.52
2023-01-13T11:02:26.423Z,98521.20
2023-01-13T11:06:51.338Z,98507.17
2023-01-13T11:11:22.421Z,98494.17
2023-01-13T11:15:46.151Z,98489.19
2023-01-13T11:20:10.104Z,98481.98
2023-01-13T11:24:39.783Z,98475.73
2023-01-13T11:29:18.869Z,98473.75
2023-01-13T11:33:51.511Z,98468.15
2023-01-13T11:38:19.271Z,98463.30
2023-01-13T11:42:43.719Z,98472.72
2023-01-13T11:47:07.260Z,98472.49
2023-01-13T11:51:46.356Z,98473.84
2023-01-13T11:56:19.555Z,98472.52
2023-01-13T12:00:42.492Z,98470.58
2023-01-13T12:05:24.663Z,98472.23
2023-01-13T12:09:57.536Z,98467.44
2023-01-13T12:14:30.418Z,98459.17
2023-01-13T12:19:15.306Z,98452.87
2023-01-13T12:23:39.307Z,98445.39
2023-01-13T12:28:14.915Z,98450.44
2023-01-13T12:32:38.857Z,98451.50
2023-01-13T12:37:08.837Z,98453.74
2023-01-13T12:41:41.659Z,98451.85
2023-01-13T12:46:12.779Z,98450.30
2023-01-13T12:50:37.750Z,98446.17
2023-01-13T12:55:10.544Z,98445.35
2023-01-13T12:59:34.432Z,98445.98
2023-01-13T13:04:13.422Z,98443.91
2023-01-13T13:08:35.717Z,98447.58
2023-01-13T13:13:11.014Z,98440.59
2023-01-13T13:17:37.918Z,98437.11
2023-01-13T13:22:07.617Z,98423.13
2023-01-13T13:26:26.290Z,98420.16
2023-01-13T13:31:11.669Z,98426.23
2023-01-13T13:35:43.379Z,98422.23
2023-01-13T13:40:14.525Z,98427.72
2023-01-13T13:44:40.434Z,98423.56
2023-01-13T13:49:02.983Z,98423.50
2023-01-13T13:53:26.318Z,98425.74
2023-01-13T13:57:43.718Z,98427.20
2023-01-13T14:02:00.753Z,98435.80
2023-01-13T14:06:43.022Z,98449.19
2023-01-13T14:11:10.299Z,98443.55
2023-01-13T14:15:35.255Z,98439.35
2023-01-13T14:19:59.122Z,98440.26
2023-01-13T14:24:25.375Z,98444.20
2023-01-13T14:28:58.437Z,98450.34
2023-01-13T14:33:22.409Z,98453.95
2023-01-13T14:38:04.454Z,98454.70
2023-01-13T14:42:29.392Z,98460.74
2023-01-13T14:46:56.034Z,98458.52
2023-01-13T14:51:12.569Z,98451.66
2023-01-13T14:55:59.189Z,98451.77
2023-01-13T15:00:24.682Z,98450.73
2023-01-13T15:05:26.839Z,98461.48
2023-01-13T15:09:53.636Z,98470.44
2023-01-13T15:14:26.568Z,98473.48
2023-01-13T15:18:52.945Z,98471.61
2023-01-13T15:23:16.875Z,98477.69
2023-01-13T15:27:40.890Z,98480.92
2023-01-13T15:32:05.434Z,98480.58
2023-01-13T15:36:29.297Z,98482.68
2023-01-13T15:40:55.880Z,98492.76
2023-01-13T15:45:18.439Z,98494.61
2023-01-13T15:49:48.627Z,98498.35
2023-01-13T15:54:12.656Z,98506.27
2023-01-13T15:58:36.597Z,98508.22
2023-01-13T16:02:53.170Z,98509.02
2023-01-13T16:07:18.110Z,98500.84
2023-01-13T16:11:42.182Z,98501.55
2023-01-13T16:16:06.140Z,98501.17
2023-01-13T16:20:22.948Z,98499.30
2023-01-13T16:24:48.013Z,98501.61
2023-01-13T16:29:14.813Z,98492.50
2023-01-13T16:33:41.034Z,98495.46
2023-01-13T16:38:09.411Z,98495.20
2023-01-13T16:42:33.429Z,98503.30
2023-01-13T16:46:51.262Z,98508.95
2023-01-13T16:51:21.152Z,98507.79
2023-01-13T16:55:44.857Z,98510.28
2023-01-13T17:00:09.945Z,98514.67
2023-01-13T17:04:33.839Z,98508.67
2023-01-13T17:08:58.811Z,98519.97
2023-01-13T17:13:22.662Z,98520.21
2023-01-13T17:17:47.202Z,98519.98
2023-01-13T17:22:11.263Z,98516.55
2023-01-13T17:26:35.300Z,98523.09
2023-01-13T17:30:59.387Z,98521.29
2023-01-13T17:35:22.878Z,98511.22
2023-01-13T17:39:47.071Z,98509.05
2023-01-13T17:44:11.022Z,98507.26
2023-01-13T17:48:37.936Z,98524.91
2023-01-13T17:53:02.268Z,98526.92
2023-01-13T17:57:26.290Z,98527.69
2023-01-13T18:01:50.939Z,98534.30
2023-01-13T18:06:14.793Z,98525.27
2023-01-13T18:10:39.188Z,98519.35
2023-01-13T18:15:03.057Z,98508.95
2023-01-13T18:19:26.208Z,98506.73
2023-01-13T18:23:57.283Z,98519.64
2023-01-13T18:28:22.268Z,98511.87
2023-01-13T18:32:46.240Z,98498.05
2023-01-13T18:37:10.350Z,98494.67
2023-01-13T18:41:32.763Z,98495.55
2023-01-13T18:45:56.891Z,98488.89
2023-01-13T18:50:21.003Z,98495.00
2023-01-13T18:54:44.888Z,98498.70
2023-01-13T18:59:09.816Z,98497.77
2023-01-13T19:03:33.812Z,98508.68
2023-01-13T19:07:56.730Z,98515.02
2023-01-13T19:12:20.679Z,98530.64
2023-01-13T19:16:44.660Z,98541.92
2023-01-13T19:21:08.825Z,98544.41
2023-01-13T19:25:33.169Z,98546.20
2023-01-13T19:29:57.083Z,98538.25
2023-01-13T19:34:21.927Z,98540.06
2023-01-13T19:38:45.974Z,98537.10
2023-01-13T19:43:08.487Z,98549.98
2023-01-13T19:47:32.533Z,98552.27
2023-01-13T19:51:56.653Z,98562.29
2023-01-13T19:56:20.980Z,98565.01
2023-01-13T20:00:45.026Z,98559.32
2023-01-13T20:05:08.961Z,98566.73
2023-01-13T20:09:33.881Z,98565.10
2023-01-13T20:13:57.571Z,98603.76
2023-01-13T20:18:21.116Z,98602.38
2023-01-13T20:22:44.990Z,98598.38
2023-01-13T20:27:08.890Z,98598.70
2023-01-13T20:31:33.991Z,98591.33
2023-01-13T20:35:58.055Z,98584.01
2023-01-13T20:40:23.051Z,98582.27
2023-01-13T20:44:49.025Z,98575.55
2023-01-13T20:49:13.119Z,98570.41
2023-01-13T20:53:36.996Z,98554.30
2023-01-13T20:58:00.929Z,98551.53
2023-01-13T21:02:24.531Z,98565.48
2023-01-13T21:06:49.565Z,98562.76
2023-01-13T21:11:14.559Z,98567.45
2023-01-13T21:15:38.479Z,98571.48
2023-01-13T21:20:04.332Z,98573.05
2023-01-13T21:24:28.635Z,98568.83
2023-01-13T21:28:56.683Z,98559.86
2023-01-13T21:33:20.713Z,98563.43
2023-01-13T21:37:44.649Z,98566.02
2023-01-13T21:42:07.068Z,98554.63
2023-01-13T21:46:30.444Z,98551.36
2023-01-13T21:50:52.454Z,98553.69
2023-01-13T21:55:16.078Z,98558.96
2023-01-13T21:59:41.141Z,98566.38
2023-01-13T22:04:05.085Z,98628.13
2023-01-13T22:08:30.059Z,98623.77
2023-01-13T22:12:53.964Z,98616.08
2023-01-13T22:17:18.230Z,98608.72
2023-01-13T22:21:43.184Z,98601.73
2023-01-13T22:26:07.275Z,98599.42
2023-01-13T22:30:31.214Z,98586.48
2023-01-13T22:34:55.301Z,98581.64
2023-01-13T22:39:19.200Z,98573.81
2023-01-13T22:43:43.206Z,98575.71
2023-01-13T22:48:07.079Z,98580.43
2023-01-13T22:52:32.109Z,98578.30
2023-01-13T22:56:56.055Z,98573.81
2023-01-13T23:01:20.251Z,98568.91
2023-01-13T23:05:44.162Z,98564.80
2023-01-13T23:10:09.120Z,98568.86
2023-01-13T23:14:38.756Z,98568.21
2023-01-13T23:19:02.716Z,98560.48
2023-01-13T23:23:19.200Z,98554.81
2023-01-13T23:27:43.240Z,98551.21
2023-01-13T23:32:07.115Z,98558.23
2023-01-13T23:36:32.267Z,98562.59
2023-01-13T23:40:56.336Z,98554.17
2023-01-13T23:45:20.300Z,98549.19
2023-01-13T23:49:44.241Z,98550.61
2023-01-13T23:54:11.768Z,98558.79
2023-01-13T23:58:15.387Z,98557.43
